sensor_id;sensor_type;location;lat;lon;timestamp;P1;durP1;ratioP1;P2;durP2;ratioP2
20832;SDS011;56075;51.264;7.150;2022-07-23T00:00:36;59.45;;;22.48;;
20832;SDS011;56075;51.264;7.150;2022-07-23T00:03:07;52.97;;;19.92;;
20832;SDS011;56075;51.264;7.150;2022-07-23T00:05:38;61.95;;;20.75;;
20832;SDS011;56075;51.264;7.150;2022-07-23T00:08:10;59.22;;;21.00;;
20832;SDS011;56075;51.264;7.150;2022-07-23T00:10:41;51.90;;;19.98;;
20832;SDS011;56075;51.264;7.150;2022-07-23T00:13:12;47.00;;;18.38;;
20832;SDS011;56075;51.264;7.150;2022-07-23T00:15:43;40.67;;;16.83;;
20832;SDS011;56075;51.264;7.150;2022-07-23T00:18:15;43.70;;;17.60;;
20832;SDS011;56075;51.264;7.150;2022-07-23T00:20:46;50.53;;;18.25;;
20832;SDS011;56075;51.264;7.150;2022-07-23T00:23:17;42.35;;;17.52;;
20832;SDS011;56075;51.264;7.150;2022-07-23T00:25:48;52.58;;;19.52;;
20832;SDS011;56075;51.264;7.150;2022-07-23T00:28:19;55.22;;;18.88;;
20832;SDS011;56075;51.264;7.150;2022-07-23T00:30:51;47.92;;;18.92;;
20832;SDS011;56075;51.264;7.150;2022-07-23T00:33:23;47.33;;;18.33;;
20832;SDS011;56075;51.264;7.150;2022-07-23T00:35:54;46.80;;;19.02;;
20832;SDS011;56075;51.264;7.150;2022-07-23T00:38:25;50.17;;;18.17;;
20832;SDS011;56075;51.264;7.150;2022-07-23T00:40:56;51.55;;;20.05;;
20832;SDS011;56075;51.264;7.150;2022-07-23T00:43:27;55.53;;;19.73;;
20832;SDS011;56075;51.264;7.150;2022-07-23T00:45:58;51.83;;;19.83;;
20832;SDS011;56075;51.264;7.150;2022-07-23T00:48:30;50.08;;;18.77;;
20832;SDS011;56075;51.264;7.150;2022-07-23T00:51:02;45.72;;;16.40;;
20832;SDS011;56075;51.264;7.150;2022-07-23T00:53:34;53.13;;;19.50;;
20832;SDS011;56075;51.264;7.150;2022-07-23T00:56:05;53.78;;;19.73;;
20832;SDS011;56075;51.264;7.150;2022-07-23T00:58:36;47.33;;;18.00;;
20832;SDS011;56075;51.264;7.150;2022-07-23T01:01:13;46.67;;;18.75;;
20832;SDS011;56075;51.264;7.150;2022-07-23T01:03:44;53.45;;;18.83;;
20832;SDS011;56075;51.264;7.150;2022-07-23T01:06:15;51.20;;;18.98;;
20832;SDS011;56075;51.264;7.150;2022-07-23T01:08:46;56.15;;;19.70;;
20832;SDS011;56075;51.264;7.150;2022-07-23T01:11:18;52.67;;;19.05;;
20832;SDS011;56075;51.264;7.150;2022-07-23T01:13:50;56.17;;;20.30;;
20832;SDS011;56075;51.264;7.150;2022-07-23T01:16:21;53.53;;;20.05;;
20832;SDS011;56075;51.264;7.150;2022-07-23T01:18:52;57.67;;;20.15;;
20832;SDS011;56075;51.264;7.150;2022-07-23T01:21:24;54.60;;;20.33;;
20832;SDS011;56075;51.264;7.150;2022-07-23T01:23:55;55.90;;;19.73;;
20832;SDS011;56075;51.264;7.150;2022-07-23T01:26:27;51.80;;;18.02;;
20832;SDS011;56075;51.264;7.150;2022-07-23T01:28:58;47.08;;;18.27;;
20832;SDS011;56075;51.264;7.150;2022-07-23T01:31:30;49.97;;;18.55;;
20832;SDS011;56075;51.264;7.150;2022-07-23T01:34:01;47.55;;;17.73;;
20832;SDS011;56075;51.264;7.150;2022-07-23T01:36:34;47.58;;;17.33;;
20832;SDS011;56075;51.264;7.150;2022-07-23T01:39:07;49.28;;;16.90;;
20832;SDS011;56075;51.264;7.150;2022-07-23T01:41:38;47.97;;;17.13;;
20832;SDS011;56075;51.264;7.150;2022-07-23T01:44:10;49.53;;;19.27;;
20832;SDS011;56075;51.264;7.150;2022-07-23T01:46:43;52.13;;;18.38;;
20832;SDS011;56075;51.264;7.150;2022-07-23T01:49:15;48.30;;;18.95;;
20832;SDS011;56075;51.264;7.150;2022-07-23T01:52:19;54.90;;;19.30;;
20832;SDS011;56075;51.264;7.150;2022-07-23T01:54:53;47.70;;;17.77;;
20832;SDS011;56075;51.264;7.150;2022-07-23T01:57:25;53.90;;;18.50;;
20832;SDS011;56075;51.264;7.150;2022-07-23T01:59:56;51.03;;;18.33;;
20832;SDS011;56075;51.264;7.150;2022-07-23T02:02:28;48.50;;;18.45;;
20832;SDS011;56075;51.264;7.150;2022-07-23T02:04:59;40.97;;;16.63;;
20832;SDS011;56075;51.264;7.150;2022-07-23T02:07:31;49.10;;;18.10;;
20832;SDS011;56075;51.264;7.150;2022-07-23T02:10:03;54.28;;;17.80;;
20832;SDS011;56075;51.264;7.150;2022-07-23T02:12:35;51.90;;;17.88;;
20832;SDS011;56075;51.264;7.150;2022-07-23T02:15:07;53.50;;;18.23;;
20832;SDS011;56075;51.264;7.150;2022-07-23T02:17:38;50.47;;;18.85;;
20832;SDS011;56075;51.264;7.150;2022-07-23T02:20:10;51.75;;;18.98;;
20832;SDS011;56075;51.264;7.150;2022-07-23T02:22:42;60.13;;;19.60;;
20832;SDS011;56075;51.264;7.150;2022-07-23T02:25:14;55.15;;;19.80;;
20832;SDS011;56075;51.264;7.150;2022-07-23T02:27:45;57.28;;;19.52;;
20832;SDS011;56075;51.264;7.150;2022-07-23T02:30:17;50.80;;;18.77;;
20832;SDS011;56075;51.264;7.150;2022-07-23T02:32:48;61.25;;;20.08;;
20832;SDS011;56075;51.264;7.150;2022-07-23T02:35:19;55.15;;;19.27;;
20832;SDS011;56075;51.264;7.150;2022-07-23T02:37:51;47.17;;;17.63;;
20832;SDS011;56075;51.264;7.150;2022-07-23T02:40:22;49.83;;;17.85;;
20832;SDS011;56075;51.264;7.150;2022-07-23T02:42:54;45.88;;;16.88;;
20832;SDS011;56075;51.264;7.150;2022-07-23T02:45:25;49.83;;;17.75;;
20832;SDS011;56075;51.264;7.150;2022-07-23T02:47:58;48.47;;;16.67;;
20832;SDS011;56075;51.264;7.150;2022-07-23T02:50:31;52.10;;;17.05;;
20832;SDS011;56075;51.264;7.150;2022-07-23T02:53:04;46.95;;;16.85;;
20832;SDS011;56075;51.264;7.150;2022-07-23T02:55:35;51.80;;;16.25;;
20832;SDS011;56075;51.264;7.150;2022-07-23T02:58:07;61.08;;;17.67;;
20832;SDS011;56075;51.264;7.150;2022-07-23T03:00:38;55.60;;;18.77;;
20832;SDS011;56075;51.264;7.150;2022-07-23T03:03:10;51.85;;;17.20;;
20832;SDS011;56075;51.264;7.150;2022-07-23T03:05:42;48.58;;;16.60;;
20832;SDS011;56075;51.264;7.150;2022-07-23T03:08:13;52.88;;;17.30;;
20832;SDS011;56075;51.264;7.150;2022-07-23T03:10:47;47.80;;;16.60;;
20832;SDS011;56075;51.264;7.150;2022-07-23T03:13:18;55.55;;;18.30;;
20832;SDS011;56075;51.264;7.150;2022-07-23T03:15:50;53.45;;;17.48;;
20832;SDS011;56075;51.264;7.150;2022-07-23T03:18:21;54.08;;;17.38;;
20832;SDS011;56075;51.264;7.150;2022-07-23T03:20:52;50.70;;;17.98;;
20832;SDS011;56075;51.264;7.150;2022-07-23T03:23:24;54.08;;;18.50;;
20832;SDS011;56075;51.264;7.150;2022-07-23T03:25:56;57.28;;;17.35;;
20832;SDS011;56075;51.264;7.150;2022-07-23T03:28:28;50.25;;;16.55;;
20832;SDS011;56075;51.264;7.150;2022-07-23T03:30:59;56.13;;;18.25;;
20832;SDS011;56075;51.264;7.150;2022-07-23T03:33:30;54.58;;;17.42;;
20832;SDS011;56075;51.264;7.150;2022-07-23T03:36:01;60.13;;;18.20;;
20832;SDS011;56075;51.264;7.150;2022-07-23T03:38:36;57.55;;;17.50;;
20832;SDS011;56075;51.264;7.150;2022-07-23T03:41:08;55.17;;;18.35;;
20832;SDS011;56075;51.264;7.150;2022-07-23T03:43:39;61.85;;;18.05;;
20832;SDS011;56075;51.264;7.150;2022-07-23T03:46:11;49.03;;;17.33;;
20832;SDS011;56075;51.264;7.150;2022-07-23T03:48:42;59.25;;;18.20;;
20832;SDS011;56075;51.264;7.150;2022-07-23T03:51:13;62.40;;;18.05;;
20832;SDS011;56075;51.264;7.150;2022-07-23T03:53:45;61.28;;;18.35;;
20832;SDS011;56075;51.264;7.150;2022-07-23T03:56:16;66.25;;;18.33;;
20832;SDS011;56075;51.264;7.150;2022-07-23T03:58:48;64.93;;;19.45;;
20832;SDS011;56075;51.264;7.150;2022-07-23T04:01:19;65.65;;;18.48;;
20832;SDS011;56075;51.264;7.150;2022-07-23T04:03:51;57.92;;;18.85;;
20832;SDS011;56075;51.264;7.150;2022-07-23T04:06:22;60.28;;;17.88;;
20832;SDS011;56075;51.264;7.150;2022-07-23T04:08:55;59.58;;;17.75;;
20832;SDS011;56075;51.264;7.150;2022-07-23T04:11:26;60.88;;;18.08;;
20832;SDS011;56075;51.264;7.150;2022-07-23T04:13:58;63.55;;;18.58;;
20832;SDS011;56075;51.264;7.150;2022-07-23T04:16:29;59.53;;;18.40;;
20832;SDS011;56075;51.264;7.150;2022-07-23T04:19:02;56.88;;;18.38;;
20832;SDS011;56075;51.264;7.150;2022-07-23T04:21:39;61.78;;;18.42;;
20832;SDS011;56075;51.264;7.150;2022-07-23T04:24:11;58.60;;;16.67;;
20832;SDS011;56075;51.264;7.150;2022-07-23T04:26:42;58.05;;;17.90;;
20832;SDS011;56075;51.264;7.150;2022-07-23T04:29:14;59.03;;;16.33;;
20832;SDS011;56075;51.264;7.150;2022-07-23T04:31:46;58.97;;;17.60;;
20832;SDS011;56075;51.264;7.150;2022-07-23T04:34:18;51.60;;;17.08;;
20832;SDS011;56075;51.264;7.150;2022-07-23T04:36:50;62.55;;;17.42;;
20832;SDS011;56075;51.264;7.150;2022-07-23T04:39:21;70.68;;;19.70;;
20832;SDS011;56075;51.264;7.150;2022-07-23T04:41:53;62.20;;;18.45;;
20832;SDS011;56075;51.264;7.150;2022-07-23T04:44:24;64.20;;;20.52;;
20832;SDS011;56075;51.264;7.150;2022-07-23T04:46:56;57.15;;;17.50;;
20832;SDS011;56075;51.264;7.150;2022-07-23T04:49:28;65.65;;;19.85;;
20832;SDS011;56075;51.264;7.150;2022-07-23T04:52:00;65.03;;;18.98;;
20832;SDS011;56075;51.264;7.150;2022-07-23T04:54:34;62.65;;;18.80;;
20832;SDS011;56075;51.264;7.150;2022-07-23T04:57:05;65.35;;;18.90;;
20832;SDS011;56075;51.264;7.150;2022-07-23T04:59:37;54.13;;;17.27;;
20832;SDS011;56075;51.264;7.150;2022-07-23T05:02:09;58.00;;;16.10;;
20832;SDS011;56075;51.264;7.150;2022-07-23T05:04:40;66.30;;;19.02;;
20832;SDS011;56075;51.264;7.150;2022-07-23T05:07:12;61.25;;;18.83;;
20832;SDS011;56075;51.264;7.150;2022-07-23T05:09:44;66.88;;;19.25;;
20832;SDS011;56075;51.264;7.150;2022-07-23T05:12:16;57.28;;;17.00;;
20832;SDS011;56075;51.264;7.150;2022-07-23T05:14:49;65.65;;;19.17;;
20832;SDS011;56075;51.264;7.150;2022-07-23T05:17:20;61.88;;;18.27;;
20832;SDS011;56075;51.264;7.150;2022-07-23T05:19:52;57.80;;;18.30;;
20832;SDS011;56075;51.264;7.150;2022-07-23T05:22:23;55.47;;;15.88;;
20832;SDS011;56075;51.264;7.150;2022-07-23T05:24:55;59.90;;;19.13;;
20832;SDS011;56075;51.264;7.150;2022-07-23T05:27:27;65.15;;;18.60;;
20832;SDS011;56075;51.264;7.150;2022-07-23T05:29:59;61.60;;;18.38;;
20832;SDS011;56075;51.264;7.150;2022-07-23T05:32:38;53.63;;;18.45;;
20832;SDS011;56075;51.264;7.150;2022-07-23T05:35:16;59.92;;;18.25;;
20832;SDS011;56075;51.264;7.150;2022-07-23T05:37:56;62.92;;;19.95;;
20832;SDS011;56075;51.264;7.150;2022-07-23T05:40:28;53.40;;;18.20;;
20832;SDS011;56075;51.264;7.150;2022-07-23T05:43:00;56.58;;;16.77;;
20832;SDS011;56075;51.264;7.150;2022-07-23T05:45:31;53.22;;;17.95;;
20832;SDS011;56075;51.264;7.150;2022-07-23T05:48:03;55.95;;;18.25;;
20832;SDS011;56075;51.264;7.150;2022-07-23T05:50:46;63.85;;;18.05;;
20832;SDS011;56075;51.264;7.150;2022-07-23T05:53:34;50.50;;;18.15;;
20832;SDS011;56075;51.264;7.150;2022-07-23T05:56:10;53.17;;;17.55;;
20832;SDS011;56075;51.264;7.150;2022-07-23T05:58:42;56.35;;;17.95;;
20832;SDS011;56075;51.264;7.150;2022-07-23T06:01:13;53.92;;;17.75;;
20832;SDS011;56075;51.264;7.150;2022-07-23T06:03:54;54.15;;;17.98;;
20832;SDS011;56075;51.264;7.150;2022-07-23T06:06:28;50.47;;;18.52;;
20832;SDS011;56075;51.264;7.150;2022-07-23T06:09:00;46.85;;;17.35;;
20832;SDS011;56075;51.264;7.150;2022-07-23T06:11:35;47.83;;;16.25;;
20832;SDS011;56075;51.264;7.150;2022-07-23T06:14:06;50.85;;;17.55;;
20832;SDS011;56075;51.264;7.150;2022-07-23T06:17:00;47.90;;;17.02;;
20832;SDS011;56075;51.264;7.150;2022-07-23T06:19:34;50.40;;;17.05;;
20832;SDS011;56075;51.264;7.150;2022-07-23T06:22:05;43.50;;;16.95;;
20832;SDS011;56075;51.264;7.150;2022-07-23T06:24:36;41.38;;;16.35;;
20832;SDS011;56075;51.264;7.150;2022-07-23T06:27:08;47.97;;;16.40;;
20832;SDS011;56075;51.264;7.150;2022-07-23T06:29:39;42.10;;;16.23;;
20832;SDS011;56075;51.264;7.150;2022-07-23T06:32:11;48.58;;;15.55;;
20832;SDS011;56075;51.264;7.150;2022-07-23T06:34:42;35.20;;;14.25;;
20832;SDS011;56075;51.264;7.150;2022-07-23T06:37:14;36.17;;;15.45;;
20832;SDS011;56075;51.264;7.150;2022-07-23T06:39:45;25.25;;;11.38;;
20832;SDS011;56075;51.264;7.150;2022-07-23T06:42:17;27.75;;;12.65;;
20832;SDS011;56075;51.264;7.150;2022-07-23T06:44:49;26.10;;;11.88;;
20832;SDS011;56075;51.264;7.150;2022-07-23T06:47:21;23.02;;;10.63;;
20832;SDS011;56075;51.264;7.150;2022-07-23T06:49:52;23.63;;;11.38;;
20832;SDS011;56075;51.264;7.150;2022-07-23T06:52:24;23.60;;;10.63;;
20832;SDS011;56075;51.264;7.150;2022-07-23T06:54:56;21.45;;;10.43;;
20832;SDS011;56075;51.264;7.150;2022-07-23T06:57:28;20.75;;;10.40;;
20832;SDS011;56075;51.264;7.150;2022-07-23T06:59:59;20.27;;;10.18;;
20832;SDS011;56075;51.264;7.150;2022-07-23T07:02:30;19.83;;;9.45;;
20832;SDS011;56075;51.264;7.150;2022-07-23T07:05:02;23.30;;;10.80;;
20832;SDS011;56075;51.264;7.150;2022-07-23T07:07:34;25.13;;;10.88;;
20832;SDS011;56075;51.264;7.150;2022-07-23T07:10:06;25.63;;;11.38;;
20832;SDS011;56075;51.264;7.150;2022-07-23T07:12:37;21.33;;;10.85;;
20832;SDS011;56075;51.264;7.150;2022-07-23T07:15:09;24.73;;;11.40;;
20832;SDS011;56075;51.264;7.150;2022-07-23T07:17:40;19.38;;;9.20;;
20832;SDS011;56075;51.264;7.150;2022-07-23T07:20:12;24.38;;;11.82;;
20832;SDS011;56075;51.264;7.150;2022-07-23T07:22:44;29.77;;;12.50;;
20832;SDS011;56075;51.264;7.150;2022-07-23T07:25:15;26.17;;;13.00;;
20832;SDS011;56075;51.264;7.150;2022-07-23T07:27:46;29.13;;;14.25;;
20832;SDS011;56075;51.264;7.150;2022-07-23T07:30:18;34.50;;;15.38;;
20832;SDS011;56075;51.264;7.150;2022-07-23T07:32:49;27.90;;;13.95;;
20832;SDS011;56075;51.264;7.150;2022-07-23T07:35:21;31.00;;;15.02;;
20832;SDS011;56075;51.264;7.150;2022-07-23T07:37:52;34.00;;;15.25;;
20832;SDS011;56075;51.264;7.150;2022-07-23T07:40:23;31.63;;;14.43;;
20832;SDS011;56075;51.264;7.150;2022-07-23T07:42:55;36.08;;;17.33;;
20832;SDS011;56075;51.264;7.150;2022-07-23T07:45:27;38.22;;;18.42;;
20832;SDS011;56075;51.264;7.150;2022-07-23T07:47:58;35.03;;;17.67;;
20832;SDS011;56075;51.264;7.150;2022-07-23T07:50:30;36.85;;;17.23;;
20832;SDS011;56075;51.264;7.150;2022-07-23T07:53:01;40.78;;;18.77;;
20832;SDS011;56075;51.264;7.150;2022-07-23T07:55:34;40.65;;;19.63;;
20832;SDS011;56075;51.264;7.150;2022-07-23T07:58:05;38.85;;;18.65;;
20832;SDS011;56075;51.264;7.150;2022-07-23T08:00:37;29.13;;;14.88;;
20832;SDS011;56075;51.264;7.150;2022-07-23T08:03:08;36.58;;;18.92;;
20832;SDS011;56075;51.264;7.150;2022-07-23T08:05:39;38.90;;;18.70;;
20832;SDS011;56075;51.264;7.150;2022-07-23T08:08:11;38.88;;;19.83;;
20832;SDS011;56075;51.264;7.150;2022-07-23T08:10:45;36.00;;;17.92;;
20832;SDS011;56075;51.264;7.150;2022-07-23T08:13:16;30.88;;;15.73;;
20832;SDS011;56075;51.264;7.150;2022-07-23T08:15:48;33.45;;;16.90;;
20832;SDS011;56075;51.264;7.150;2022-07-23T08:18:19;32.60;;;17.88;;
20832;SDS011;56075;51.264;7.150;2022-07-23T08:20:50;30.25;;;15.32;;
20832;SDS011;56075;51.264;7.150;2022-07-23T08:23:22;29.52;;;14.60;;
20832;SDS011;56075;51.264;7.150;2022-07-23T08:25:53;25.45;;;13.70;;
20832;SDS011;56075;51.264;7.150;2022-07-23T08:28:27;22.05;;;12.77;;
20832;SDS011;56075;51.264;7.150;2022-07-23T08:30:59;31.13;;;16.10;;
20832;SDS011;56075;51.264;7.150;2022-07-23T08:33:33;27.48;;;15.82;;
20832;SDS011;56075;51.264;7.150;2022-07-23T08:36:05;23.88;;;14.05;;
20832;SDS011;56075;51.264;7.150;2022-07-23T08:38:36;25.15;;;13.25;;
20832;SDS011;56075;51.264;7.150;2022-07-23T08:41:08;24.90;;;13.93;;
20832;SDS011;56075;51.264;7.150;2022-07-23T08:43:40;22.10;;;13.32;;
20832;SDS011;56075;51.264;7.150;2022-07-23T08:46:11;23.73;;;14.43;;
20832;SDS011;56075;51.264;7.150;2022-07-23T08:48:44;24.13;;;14.00;;
20832;SDS011;56075;51.264;7.150;2022-07-23T08:51:18;23.85;;;14.18;;
20832;SDS011;56075;51.264;7.150;2022-07-23T08:53:51;21.30;;;12.40;;
20832;SDS011;56075;51.264;7.150;2022-07-23T08:56:23;21.27;;;13.98;;
20832;SDS011;56075;51.264;7.150;2022-07-23T08:58:54;26.30;;;16.13;;
20832;SDS011;56075;51.264;7.150;2022-07-23T09:01:25;25.30;;;15.88;;
20832;SDS011;56075;51.264;7.150;2022-07-23T09:03:57;24.83;;;16.08;;
20832;SDS011;56075;51.264;7.150;2022-07-23T09:06:28;21.65;;;13.77;;
20832;SDS011;56075;51.264;7.150;2022-07-23T09:09:00;24.67;;;16.23;;
20832;SDS011;56075;51.264;7.150;2022-07-23T09:11:48;22.23;;;14.05;;
20832;SDS011;56075;51.264;7.150;2022-07-23T09:14:38;25.25;;;16.70;;
20832;SDS011;56075;51.264;7.150;2022-07-23T09:17:14;16.35;;;12.13;;
20832;SDS011;56075;51.264;7.150;2022-07-23T09:19:47;13.18;;;9.55;;
20832;SDS011;56075;51.264;7.150;2022-07-23T09:22:22;17.77;;;12.00;;
20832;SDS011;56075;51.264;7.150;2022-07-23T09:25:07;17.55;;;13.00;;
20832;SDS011;56075;51.264;7.150;2022-07-23T09:27:45;22.27;;;13.52;;
20832;SDS011;56075;51.264;7.150;2022-07-23T09:30:21;21.23;;;14.85;;
20832;SDS011;56075;51.264;7.150;2022-07-23T09:33:03;20.50;;;14.70;;
20832;SDS011;56075;51.264;7.150;2022-07-23T09:35:55;18.85;;;12.27;;
20832;SDS011;56075;51.264;7.150;2022-07-23T09:38:27;22.90;;;14.75;;
20832;SDS011;56075;51.264;7.150;2022-07-23T09:41:05;22.55;;;15.10;;
20832;SDS011;56075;51.264;7.150;2022-07-23T09:43:37;18.08;;;13.90;;
20832;SDS011;56075;51.264;7.150;2022-07-23T09:48:56;18.48;;;13.40;;
20832;SDS011;56075;51.264;7.150;2022-07-23T09:51:28;18.80;;;13.52;;
20832;SDS011;56075;51.264;7.150;2022-07-23T09:54:07;20.02;;;13.02;;
20832;SDS011;56075;51.264;7.150;2022-07-23T09:56:53;18.55;;;13.15;;
20832;SDS011;56075;51.264;7.150;2022-07-23T09:59:29;20.92;;;13.60;;
20832;SDS011;56075;51.264;7.150;2022-07-23T10:02:04;20.50;;;13.15;;
20832;SDS011;56075;51.264;7.150;2022-07-23T10:04:45;15.85;;;11.93;;
20832;SDS011;56075;51.264;7.150;2022-07-23T10:07:36;14.20;;;9.30;;
20832;SDS011;56075;51.264;7.150;2022-07-23T10:10:10;15.88;;;10.95;;
20832;SDS011;56075;51.264;7.150;2022-07-23T10:13:03;17.90;;;12.15;;
20832;SDS011;56075;51.264;7.150;2022-07-23T10:15:55;19.02;;;13.52;;
20832;SDS011;56075;51.264;7.150;2022-07-23T10:18:26;19.02;;;11.80;;
20832;SDS011;56075;51.264;7.150;2022-07-23T10:20:58;15.05;;;10.00;;
20832;SDS011;56075;51.264;7.150;2022-07-23T10:23:37;17.38;;;11.88;;
20832;SDS011;56075;51.264;7.150;2022-07-23T10:26:18;17.08;;;11.15;;
20832;SDS011;56075;51.264;7.150;2022-07-23T10:37:48;13.10;;;8.38;;
20832;SDS011;56075;51.264;7.150;2022-07-23T10:40:22;13.88;;;9.90;;
20832;SDS011;56075;51.264;7.150;2022-07-23T10:42:57;17.65;;;9.50;;
20832;SDS011;56075;51.264;7.150;2022-07-23T10:45:34;12.52;;;9.38;;
20832;SDS011;56075;51.264;7.150;2022-07-23T10:51:10;14.38;;;8.27;;
20832;SDS011;56075;51.264;7.150;2022-07-23T10:53:59;14.05;;;9.23;;
20832;SDS011;56075;51.264;7.150;2022-07-23T10:59:26;14.05;;;9.02;;
20832;SDS011;56075;51.264;7.150;2022-07-23T11:04:52;12.57;;;7.93;;
20832;SDS011;56075;51.264;7.150;2022-07-23T11:07:23;9.65;;;7.55;;
20832;SDS011;56075;51.264;7.150;2022-07-23T11:09:55;8.32;;;6.38;;
20832;SDS011;56075;51.264;7.150;2022-07-23T11:12:31;17.50;;;6.65;;
20832;SDS011;56075;51.264;7.150;2022-07-23T11:15:13;8.82;;;5.88;;
20832;SDS011;56075;51.264;7.150;2022-07-23T11:20:22;9.50;;;6.20;;
20832;SDS011;56075;51.264;7.150;2022-07-23T11:22:55;16.88;;;5.20;;
20832;SDS011;56075;51.264;7.150;2022-07-23T11:25:32;9.77;;;6.10;;
20832;SDS011;56075;51.264;7.150;2022-07-23T11:28:15;10.45;;;5.70;;
20832;SDS011;56075;51.264;7.150;2022-07-23T11:30:48;9.20;;;5.20;;
20832;SDS011;56075;51.264;7.150;2022-07-23T11:33:20;6.18;;;4.47;;
20832;SDS011;56075;51.264;7.150;2022-07-23T11:36:02;9.90;;;5.05;;
20832;SDS011;56075;51.264;7.150;2022-07-23T11:38:34;8.07;;;5.05;;
20832;SDS011;56075;51.264;7.150;2022-07-23T11:41:07;8.55;;;5.07;;
20832;SDS011;56075;51.264;7.150;2022-07-23T11:43:40;8.55;;;4.93;;
20832;SDS011;56075;51.264;7.150;2022-07-23T11:46:12;3.78;;;2.95;;
20832;SDS011;56075;51.264;7.150;2022-07-23T11:48:43;7.60;;;4.70;;
20832;SDS011;56075;51.264;7.150;2022-07-23T11:51:24;5.55;;;3.80;;
20832;SDS011;56075;51.264;7.150;2022-07-23T11:54:04;4.78;;;3.45;;
20832;SDS011;56075;51.264;7.150;2022-07-23T11:56:36;5.95;;;3.75;;
20832;SDS011;56075;51.264;7.150;2022-07-23T11:59:08;5.75;;;3.28;;
20832;SDS011;56075;51.264;7.150;2022-07-23T12:01:55;5.47;;;3.50;;
20832;SDS011;56075;51.264;7.150;2022-07-23T12:04:37;6.00;;;3.05;;
20832;SDS011;56075;51.264;7.150;2022-07-23T12:09:54;4.50;;;2.85;;
20832;SDS011;56075;51.264;7.150;2022-07-23T12:12:27;5.25;;;2.78;;
20832;SDS011;56075;51.264;7.150;2022-07-23T12:15:05;5.82;;;2.85;;
20832;SDS011;56075;51.264;7.150;2022-07-23T12:17:40;5.30;;;2.90;;
20832;SDS011;56075;51.264;7.150;2022-07-23T12:20:15;4.00;;;2.67;;
20832;SDS011;56075;51.264;7.150;2022-07-23T12:22:56;7.80;;;3.20;;
20832;SDS011;56075;51.264;7.150;2022-07-23T12:25:30;3.95;;;2.60;;
20832;SDS011;56075;51.264;7.150;2022-07-23T12:28:05;4.88;;;2.92;;
20832;SDS011;56075;51.264;7.150;2022-07-23T12:30:39;4.60;;;2.75;;
20832;SDS011;56075;51.264;7.150;2022-07-23T12:33:14;5.30;;;2.40;;
20832;SDS011;56075;51.264;7.150;2022-07-23T12:35:52;3.83;;;2.38;;
20832;SDS011;56075;51.264;7.150;2022-07-23T12:38:26;5.50;;;2.20;;
20832;SDS011;56075;51.264;7.150;2022-07-23T12:40:59;5.85;;;3.10;;
20832;SDS011;56075;51.264;7.150;2022-07-23T12:43:36;5.28;;;2.60;;
20832;SDS011;56075;51.264;7.150;2022-07-23T12:46:12;6.80;;;2.38;;
20832;SDS011;56075;51.264;7.150;2022-07-23T12:51:29;8.65;;;3.40;;
20832;SDS011;56075;51.264;7.150;2022-07-23T12:54:06;6.10;;;2.58;;
20832;SDS011;56075;51.264;7.150;2022-07-23T12:56:40;3.55;;;2.13;;
20832;SDS011;56075;51.264;7.150;2022-07-23T12:59:15;4.68;;;2.00;;
20832;SDS011;56075;51.264;7.150;2022-07-23T13:01:54;3.15;;;1.98;;
20832;SDS011;56075;51.264;7.150;2022-07-23T13:04:28;8.98;;;2.40;;
20832;SDS011;56075;51.264;7.150;2022-07-23T13:07:02;5.93;;;2.13;;
20832;SDS011;56075;51.264;7.150;2022-07-23T13:09:33;5.50;;;1.90;;
20832;SDS011;56075;51.264;7.150;2022-07-23T13:12:05;2.33;;;1.83;;
20832;SDS011;56075;51.264;7.150;2022-07-23T13:14:37;4.60;;;2.20;;
20832;SDS011;56075;51.264;7.150;2022-07-23T13:17:09;6.32;;;2.15;;
20832;SDS011;56075;51.264;7.150;2022-07-23T13:19:40;3.50;;;2.10;;
20832;SDS011;56075;51.264;7.150;2022-07-23T13:22:11;6.10;;;2.25;;
20832;SDS011;56075;51.264;7.150;2022-07-23T13:24:43;5.10;;;2.20;;
20832;SDS011;56075;51.264;7.150;2022-07-23T13:27:14;3.38;;;2.10;;
20832;SDS011;56075;51.264;7.150;2022-07-23T13:29:45;3.90;;;1.88;;
20832;SDS011;56075;51.264;7.150;2022-07-23T13:32:17;8.40;;;2.60;;
20832;SDS011;56075;51.264;7.150;2022-07-23T13:34:48;4.25;;;2.55;;
20832;SDS011;56075;51.264;7.150;2022-07-23T13:37:23;10.18;;;2.30;;
20832;SDS011;56075;51.264;7.150;2022-07-23T13:39:54;4.47;;;2.10;;
20832;SDS011;56075;51.264;7.150;2022-07-23T13:42:25;4.95;;;2.35;;
20832;SDS011;56075;51.264;7.150;2022-07-23T13:44:58;6.70;;;2.47;;
20832;SDS011;56075;51.264;7.150;2022-07-23T13:47:29;3.72;;;2.65;;
20832;SDS011;56075;51.264;7.150;2022-07-23T13:50:00;5.80;;;1.90;;
20832;SDS011;56075;51.264;7.150;2022-07-23T13:52:34;5.45;;;2.20;;
20832;SDS011;56075;51.264;7.150;2022-07-23T13:55:05;3.63;;;2.40;;
20832;SDS011;56075;51.264;7.150;2022-07-23T13:57:38;4.78;;;2.10;;
20832;SDS011;56075;51.264;7.150;2022-07-23T14:00:10;4.13;;;2.22;;
20832;SDS011;56075;51.264;7.150;2022-07-23T14:02:42;4.78;;;2.33;;
20832;SDS011;56075;51.264;7.150;2022-07-23T14:05:13;3.58;;;2.50;;
20832;SDS011;56075;51.264;7.150;2022-07-23T14:07:45;4.70;;;2.00;;
20832;SDS011;56075;51.264;7.150;2022-07-23T14:10:18;2.97;;;1.90;;
20832;SDS011;56075;51.264;7.150;2022-07-23T14:12:51;5.60;;;2.30;;
20832;SDS011;56075;51.264;7.150;2022-07-23T14:15:24;7.05;;;2.70;;
20832;SDS011;56075;51.264;7.150;2022-07-23T14:17:57;6.18;;;2.83;;
20832;SDS011;56075;51.264;7.150;2022-07-23T14:20:28;5.60;;;3.00;;
20832;SDS011;56075;51.264;7.150;2022-07-23T14:23:00;4.47;;;2.72;;
20832;SDS011;56075;51.264;7.150;2022-07-23T14:25:34;5.57;;;3.10;;
20832;SDS011;56075;51.264;7.150;2022-07-23T14:28:08;7.13;;;3.40;;
20832;SDS011;56075;51.264;7.150;2022-07-23T14:30:40;4.85;;;2.70;;
20832;SDS011;56075;51.264;7.150;2022-07-23T14:33:13;5.95;;;2.95;;
20832;SDS011;56075;51.264;7.150;2022-07-23T14:35:46;7.75;;;3.67;;
20832;SDS011;56075;51.264;7.150;2022-07-23T14:38:17;3.25;;;2.80;;
20832;SDS011;56075;51.264;7.150;2022-07-23T14:40:48;5.07;;;2.85;;
20832;SDS011;56075;51.264;7.150;2022-07-23T14:43:20;4.93;;;2.88;;
20832;SDS011;56075;51.264;7.150;2022-07-23T14:45:51;5.43;;;3.13;;
20832;SDS011;56075;51.264;7.150;2022-07-23T14:48:22;5.40;;;3.33;;
20832;SDS011;56075;51.264;7.150;2022-07-23T14:50:53;5.72;;;3.15;;
20832;SDS011;56075;51.264;7.150;2022-07-23T14:53:25;5.97;;;3.97;;
20832;SDS011;56075;51.264;7.150;2022-07-23T14:55:56;6.10;;;3.75;;
20832;SDS011;56075;51.264;7.150;2022-07-23T14:58:27;3.58;;;2.78;;
20832;SDS011;56075;51.264;7.150;2022-07-23T15:01:00;8.65;;;3.30;;
20832;SDS011;56075;51.264;7.150;2022-07-23T15:03:33;7.45;;;2.75;;
20832;SDS011;56075;51.264;7.150;2022-07-23T15:06:04;5.45;;;2.90;;
20832;SDS011;56075;51.264;7.150;2022-07-23T15:08:36;5.07;;;3.22;;
20832;SDS011;56075;51.264;7.150;2022-07-23T15:11:07;7.00;;;2.90;;
20832;SDS011;56075;51.264;7.150;2022-07-23T15:13:41;4.72;;;3.00;;
20832;SDS011;56075;51.264;7.150;2022-07-23T15:16:12;6.10;;;3.00;;
20832;SDS011;56075;51.264;7.150;2022-07-23T15:18:43;4.75;;;3.55;;
20832;SDS011;56075;51.264;7.150;2022-07-23T15:21:14;5.22;;;3.17;;
20832;SDS011;56075;51.264;7.150;2022-07-23T15:23:46;5.90;;;3.25;;
20832;SDS011;56075;51.264;7.150;2022-07-23T15:26:17;4.22;;;3.10;;
20832;SDS011;56075;51.264;7.150;2022-07-23T15:28:48;7.47;;;3.13;;
20832;SDS011;56075;51.264;7.150;2022-07-23T15:31:19;5.35;;;3.00;;